createdAt,value
2022-09-23T00:01:14.494Z,99950.16
2022-09-23T00:03:16.928Z,99949.28
2022-09-23T00:05:19.276Z,99947.56
2022-09-23T00:07:21.936Z,99946.59
2022-09-23T00:09:24.712Z,99938.56
2022-09-23T00:11:28.590Z,99935.03
2022-09-23T00:13:30.819Z,99936.94
2022-09-23T00:15:37.686Z,99936.94
2022-09-23T00:17:40.812Z,99938.59
2022-09-23T00:19:43.234Z,99935.38
2022-09-23T00:21:45.691Z,99931.75
2022-09-23T00:23:48.366Z,99937.25
2022-09-23T00:25:58.353Z,99934.78
2022-09-23T00:28:00.742Z,99930.91
2022-09-23T00:30:04.746Z,99925.72
2022-09-23T00:32:09.961Z,99925.72
2022-09-23T00:34:12.281Z,99931.19
2022-09-23T00:36:16.230Z,99926.00
2022-09-23T00:38:18.465Z,99927.00
2022-09-23T00:40:21.177Z,99926.09
2022-09-23T00:42:27.058Z,99928.69
2022-09-23T00:44:48.581Z,99928.97
2022-09-23T00:46:51.096Z,99925.94
2022-09-23T00:49:00.318Z,99928.03
2022-09-23T00:51:02.545Z,99926.91
2022-09-23T00:53:08.811Z,99930.56
2022-09-23T00:55:15.950Z,99928.75
2022-09-23T00:57:20.384Z,99934.00
2022-09-23T00:59:24.671Z,99931.44
2022-09-23T01:01:27.033Z,99929.69
2022-09-23T01:03:29.335Z,99924.22
2022-09-23T01:05:33.607Z,99935.94
2022-09-23T01:07:35.871Z,99935.78
2022-09-23T01:09:38.206Z,99929.69
2022-09-23T01:11:47.302Z,99936.94
2022-09-23T01:14:17.172Z,99938.53
2022-09-23T01:16:44.355Z,99932.38
2022-09-23T01:19:03.041Z,99933.13
2022-09-23T01:21:24.829Z,99940.50
2022-09-23T01:23:48.472Z,99942.19
2022-09-23T01:26:25.456Z,99929.56
2022-09-23T01:28:45.763Z,99933.13
2022-09-23T01:31:15.014Z,99931.31
2022-09-23T01:33:39.897Z,99934.09
2022-09-23T01:35:53.256Z,99932.03
2022-09-23T01:38:04.104Z,99932.19
2022-09-23T01:40:32.525Z,99926.06
2022-09-23T01:42:46.705Z,99930.59
2022-09-23T01:44:57.874Z,99938.53
2022-09-23T01:47:11.229Z,99939.50
2022-09-23T01:49:23.192Z,99942.03
2022-09-23T01:51:38.834Z,99941.31
2022-09-23T01:53:54.502Z,99935.81
2022-09-23T01:56:03.142Z,99940.38
2022-09-23T01:58:15.333Z,99938.75
2022-09-23T02:00:19.684Z,99936.94
2022-09-23T02:02:32.922Z,99934.41
2022-09-23T02:04:45.559Z,99933.66
2022-09-23T02:06:55.688Z,99930.94
2022-09-23T02:09:05.523Z,99935.53
2022-09-23T02:11:11.287Z,99930.13
2022-09-23T02:13:55.218Z,99933.19
2022-09-23T02:16:02.387Z,99928.72
2022-09-23T02:18:13.886Z,99934.34
2022-09-23T02:20:23.110Z,99937.94
2022-09-23T02:22:34.667Z,99937.13
2022-09-23T02:24:39.105Z,99933.63
2022-09-23T02:26:47.827Z,99932.91
2022-09-23T02:29:18.075Z,99933.03
2022-09-23T02:31:37.987Z,99931.34
2022-09-23T02:33:46.804Z,99939.41
2022-09-23T02:35:54.448Z,99930.56
2022-09-23T02:38:08.666Z,99929.84
2022-09-23T02:40:32.061Z,99929.94
2022-09-23T02:43:08.294Z,99923.81
2022-09-23T02:45:10.727Z,99926.50
2022-09-23T02:47:12.855Z,99928.34
2022-09-23T02:49:24.711Z,99928.53
2022-09-23T02:51:29.043Z,99938.25
2022-09-23T02:53:36.816Z,99937.53
2022-09-23T02:55:39.768Z,99935.88
2022-09-23T02:57:42.472Z,99939.47
2022-09-23T02:59:46.291Z,99938.69
2022-09-23T03:01:57.386Z,99937.84
2022-09-23T03:04:36.885Z,99945.22
2022-09-23T03:06:44.917Z,99948.69
2022-09-23T03:08:58.516Z,99948.78
2022-09-23T03:11:05.935Z,99954.00
2022-09-23T03:13:35.741Z,99957.00
2022-09-23T03:15:52.562Z,99960.59
2022-09-23T03:18:14.689Z,99963.38
2022-09-23T03:20:24.961Z,99962.38
2022-09-23T03:22:33.641Z,99954.38
2022-09-23T03:24:39.670Z,99960.00
2022-09-23T03:26:46.845Z,99953.09
2022-09-23T03:28:50.495Z,99956.59
2022-09-23T03:30:54.690Z,99957.38
2022-09-23T03:33:01.344Z,99952.97
2022-09-23T03:35:05.318Z,99947.66
2022-09-23T03:37:32.047Z,99955.88
2022-09-23T03:39:56.254Z,99953.09
2022-09-23T03:42:03.642Z,99957.59
2022-09-23T03:44:08.290Z,99953.94
2022-09-23T03:46:10.433Z,99950.41
2022-09-23T03:48:15.310Z,99948.78
2022-09-23T03:50:21.036Z,99953.19
2022-09-23T03:52:25.228Z,99944.97
2022-09-23T03:54:30.119Z,99950.41
2022-09-23T03:56:32.508Z,99947.72
2022-09-23T03:58:34.960Z,99953.97
2022-09-23T04:00:37.692Z,99948.59
2022-09-23T04:02:40.687Z,99944.97
2022-09-23T04:04:43.898Z,99952.00
2022-09-23T04:06:47.097Z,99954.00
2022-09-23T04:08:49.657Z,99947.72
2022-09-23T04:10:54.851Z,99948.56
2022-09-23T04:12:57.505Z,99948.47
2022-09-23T04:15:00.444Z,99946.78
2022-09-23T04:17:02.967Z,99948.56
2022-09-23T04:19:05.264Z,99943.88
2022-09-23T04:21:07.558Z,99948.25
2022-09-23T04:23:09.929Z,99945.44
2022-09-23T04:25:15.194Z,99945.53
2022-09-23T04:27:17.501Z,99953.50
2022-09-23T04:29:20.631Z,99950.94
2022-09-23T04:31:34.739Z,99951.03
2022-09-23T04:33:38.125Z,99950.91
2022-09-23T04:35:43.709Z,99948.94
2022-09-23T04:37:49.478Z,99947.97
2022-09-23T04:39:52.221Z,99947.16
2022-09-23T04:42:00.026Z,99957.06
2022-09-23T04:44:02.936Z,99956.91
2022-09-23T04:46:07.551Z,99954.09
2022-09-23T04:48:11.117Z,99955.09
2022-09-23T04:50:13.800Z,99968.38
2022-09-23T04:52:18.876Z,99960.25
2022-09-23T04:54:21.044Z,99970.03
2022-09-23T04:56:26.634Z,99975.38
2022-09-23T04:58:29.692Z,99975.31
2022-09-23T05:00:35.344Z,99981.47
2022-09-23T05:02:43.510Z,99984.94
2022-09-23T05:04:45.793Z,99979.50
2022-09-23T05:06:48.370Z,99982.31
2022-09-23T05:08:52.926Z,99983.31
2022-09-23T05:11:05.349Z,99987.06
2022-09-23T05:13:07.671Z,99977.03
2022-09-23T05:15:10.456Z,99978.50
2022-09-23T05:17:12.866Z,99981.13
2022-09-23T05:19:15.639Z,99977.59
2022-09-23T05:21:20.557Z,99975.81
2022-09-23T05:23:24.112Z,99974.88
2022-09-23T05:25:26.948Z,99990.00
2022-09-23T05:27:29.654Z,99982.72
2022-09-23T05:29:32.254Z,99982.63
2022-09-23T05:31:34.928Z,99980.69
2022-09-23T05:33:37.565Z,99984.09
2022-09-23T05:35:40.426Z,99978.66
2022-09-23T05:37:42.865Z,99979.59
2022-09-23T05:39:46.785Z,99978.78
2022-09-23T05:41:49.283Z,99978.72
2022-09-23T05:43:53.275Z,99982.16
2022-09-23T05:46:12.356Z,99981.19
2022-09-23T05:48:14.811Z,99987.41
2022-09-23T05:50:17.114Z,99980.22
2022-09-23T05:52:19.424Z,99987.44
2022-09-23T05:54:24.314Z,99990.94
2022-09-23T05:56:28.177Z,99984.50
2022-09-23T05:58:30.517Z,99986.31
2022-09-23T06:00:33.151Z,99988.88
2022-09-23T06:02:35.909Z,99984.03
2022-09-23T06:04:38.730Z,99985.81
2022-09-23T06:06:43.178Z,99988.69
2022-09-23T06:08:46.218Z,99987.72
2022-09-23T06:10:53.581Z,99984.09
2022-09-23T06:12:56.958Z,99980.38
2022-09-23T06:14:59.290Z,99987.44
2022-09-23T06:17:04.416Z,99989.88
2022-09-23T06:19:07.135Z,99978.22
2022-09-23T06:21:13.387Z,99975.44
2022-09-23T06:23:15.656Z,99975.97
2022-09-23T06:25:19.786Z,99978.59
2022-09-23T06:27:23.001Z,99986.84
2022-09-23T06:29:24.960Z,99984.94
2022-09-23T06:31:27.321Z,99981.19
2022-09-23T06:33:36.641Z,99978.28
2022-09-23T06:35:39.720Z,99980.16
2022-09-23T06:37:41.953Z,99975.50
2022-09-23T06:39:44.003Z,99982.47
2022-09-23T06:41:48.717Z,99976.13
2022-09-23T06:43:53.889Z,99982.84
2022-09-23T06:45:58.098Z,99991.81
2022-09-23T06:48:00.387Z,99987.06
2022-09-23T06:50:02.881Z,99990.59
2022-09-23T06:52:06.007Z,100001.31
2022-09-23T06:54:08.518Z,100003.81
2022-09-23T06:56:11.631Z,99993.88
2022-09-23T06:58:14.137Z,100000.84
2022-09-23T07:00:16.441Z,100002.44
2022-09-23T07:02:21.241Z,100002.31
2022-09-23T07:04:28.623Z,100013.22
2022-09-23T07:06:31.557Z,100001.38
2022-09-23T07:08:35.544Z,100009.41
2022-09-23T07:10:37.944Z,100009.25
2022-09-23T07:12:40.323Z,100005.44
2022-09-23T07:14:42.695Z,100007.88
2022-09-23T07:16:45.281Z,100010.75
2022-09-23T07:18:47.651Z,100003.59
2022-09-23T07:20:50.678Z,100003.28
2022-09-23T07:22:53.415Z,100010.94
2022-09-23T07:24:56.297Z,100008.94
2022-09-23T07:26:58.522Z,100008.63
2022-09-23T07:29:05.355Z,100010.31
2022-09-23T07:31:13.371Z,100013.91
2022-09-23T07:33:30.960Z,100010.84
2022-09-23T07:35:35.035Z,100014.09
2022-09-23T07:37:38.309Z,100013.72
2022-09-23T07:39:42.132Z,100003.56
2022-09-23T07:41:44.980Z,100008.78
2022-09-23T07:43:49.844Z,100007.53
2022-09-23T07:45:52.812Z,100009.97
2022-09-23T07:47:55.983Z,100016.13
2022-09-23T07:49:58.286Z,100016.84
2022-09-23T07:52:00.422Z,100012.09
2022-09-23T07:54:02.882Z,100010.00
2022-09-23T07:56:06.860Z,100003.34
2022-09-23T07:58:09.167Z,100003.00
2022-09-23T08:00:16.545Z,100004.69
2022-09-23T08:02:18.953Z,100006.28
2022-09-23T08:04:28.575Z,99999.81
2022-09-23T08:06:32.478Z,100004.88
2022-09-23T08:08:35.960Z,100006.25
2022-09-23T08:10:38.750Z,100000.78
2022-09-23T08:12:41.045Z,99994.28
2022-09-23T08:14:43.868Z,100001.97
2022-09-23T08:16:47.259Z,99998.72
2022-09-23T08:18:49.799Z,100008.22
2022-09-23T08:20:52.294Z,100006.13
2022-09-23T08:22:54.826Z,100020.06
2022-09-23T08:24:58.583Z,100003.13
2022-09-23T08:27:00.880Z,100004.31
2022-09-23T08:29:05.660Z,100001.81
2022-09-23T08:31:08.566Z,100000.47
2022-09-23T08:33:14.249Z,99997.34
2022-09-23T08:35:17.020Z,99994.25
2022-09-23T08:37:19.134Z,99992.81
2022-09-23T08:39:23.207Z,99990.53
2022-09-23T08:41:44.106Z,99987.91
2022-09-23T08:43:51.606Z,99987.28
2022-09-23T08:45:56.287Z,99986.13
2022-09-23T08:48:22.616Z,99990.56
2022-09-23T08:50:37.387Z,99991.13
2022-09-23T08:52:57.227Z,99986.19
2022-09-23T08:54:59.627Z,99987.44
2022-09-23T08:57:05.350Z,99986.34
2022-09-23T08:59:52.158Z,99989.69
2022-09-23T09:02:21.651Z,99992.13
2022-09-23T09:04:53.262Z,99987.06
2022-09-23T09:07:32.199Z,99976.84
2022-09-23T09:09:38.078Z,99982.72
2022-09-23T09:11:48.643Z,99982.47
2022-09-23T09:14:04.732Z,99992.28
2022-09-23T09:16:58.323Z,99991.88
2022-09-23T09:18:58.716Z,99984.03
2022-09-23T09:21:09.972Z,99992.06
2022-09-23T09:23:22.917Z,99987.88
2022-09-23T09:25:47.201Z,99987.78
2022-09-23T09:27:50.305Z,99988.00
2022-09-23T09:29:57.643Z,99987.13
2022-09-23T09:32:00.202Z,99980.34
2022-09-23T09:34:16.618Z,99979.69
2022-09-23T09:36:27.585Z,99973.38
2022-09-23T09:38:29.887Z,99966.47
2022-09-23T09:40:34.733Z,99974.22
2022-09-23T09:42:42.119Z,99970.28
2022-09-23T09:44:58.761Z,99969.50
2022-09-23T09:47:36.769Z,99975.81
2022-09-23T09:49:49.600Z,99970.38
2022-09-23T09:52:13.490Z,99977.09
2022-09-23T09:54:18.391Z,99975.69
2022-09-23T09:56:27.445Z,99975.59
2022-09-23T09:58:54.646Z,99977.44
2022-09-23T10:00:57.271Z,99977.44
2022-09-23T10:03:15.247Z,99978.50
2022-09-23T10:05:26.178Z,99981.09
2022-09-23T10:07:31.292Z,99984.94
2022-09-23T10:09:36.645Z,99980.03
2022-09-23T10:11:40.127Z,99982.19
2022-09-23T10:14:00.627Z,99974.03
2022-09-23T10:16:04.247Z,99978.75
2022-09-23T10:18:21.019Z,99976.69
2022-09-23T10:20:24.856Z,99971.34
2022-09-23T10:22:32.963Z,99972.91
2022-09-23T10:28:55.812Z,99963.81
2022-09-23T10:31:06.412Z,99970.00
2022-09-23T10:33:28.142Z,99971.06
2022-09-23T10:35:34.834Z,99974.28
2022-09-23T10:38:02.489Z,99969.63
2022-09-23T10:40:53.068Z,99970.22
2022-09-23T10:43:36.186Z,99970.53
2022-09-23T10:46:09.444Z,99961.28
2022-09-23T10:48:34.556Z,99955.66
2022-09-23T10:50:50.992Z,99952.72
2022-09-23T10:53:18.976Z,99953.81
2022-09-23T10:55:43.229Z,99956.53
2022-09-23T10:57:45.854Z,99958.53
2022-09-23T11:00:09.188Z,99956.91
2022-09-23T11:02:49.478Z,99945.22
2022-09-23T11:05:14.791Z,99955.25
2022-09-23T11:07:40.834Z,99951.81
2022-09-23T11:10:08.866Z,99953.09
2022-09-23T11:12:25.746Z,99952.69
2022-09-23T11:14:50.574Z,99952.78
2022-09-23T11:17:15.654Z,99943.88
2022-09-23T11:19:24.531Z,99944.72
2022-09-23T11:21:49.834Z,99939.59
2022-09-23T11:24:00.495Z,99944.72
2022-09-23T11:26:05.778Z,99941.88
2022-09-23T11:28:47.046Z,99942.09
2022-09-23T11:31:15.090Z,99945.50
2022-09-23T11:33:39.674Z,99953.75
2022-09-23T11:35:53.371Z,99944.03
2022-09-23T11:38:08.338Z,99941.22
2022-09-23T11:40:35.263Z,99932.97
2022-09-23T11:42:55.608Z,99939.94
2022-09-23T11:45:21.579Z,99935.78
2022-09-23T11:47:35.317Z,99939.09
2022-09-23T11:50:02.377Z,99938.00
2022-09-23T11:52:29.856Z,99936.28
2022-09-23T11:54:58.033Z,99932.38
2022-09-23T11:57:04.294Z,99922.84
2022-09-23T11:59:12.634Z,99929.84
2022-09-23T12:01:34.982Z,99922.56
2022-09-23T12:04:10.069Z,99922.56
2022-09-23T12:06:31.205Z,99918.75
2022-09-23T12:08:37.411Z,99920.28
2022-09-23T12:11:01.741Z,99921.19
2022-09-23T12:13:16.287Z,99914.75
2022-09-23T12:15:28.613Z,99923.69
2022-09-23T12:17:49.131Z,99914.75
2022-09-23T12:20:09.949Z,99900.16
2022-09-23T12:22:33.357Z,99907.16
2022-09-23T12:24:57.015Z,99899.75
2022-09-23T12:27:06.528Z,99894.19
2022-09-23T12:29:14.282Z,99897.38
2022-09-23T12:31:21.222Z,99900.31
2022-09-23T12:33:33.222Z,99895.66
2022-09-23T12:35:44.868Z,99907.28
2022-09-23T12:37:48.656Z,99903.69
2022-09-23T12:39:50.883Z,99899.13
2022-09-23T12:42:18.711Z,99893.44
2022-09-23T12:44:32.012Z,99902.25
2022-09-23T12:46:34.826Z,99900.31
2022-09-23T12:49:27.652Z,99891.59
2022-09-23T12:51:36.542Z,99888.66
2022-09-23T12:53:39.086Z,99884.06
2022-09-23T12:55:47.329Z,99889.16
2022-09-23T12:57:50.206Z,99890.72
2022-09-23T12:59:57.473Z,99888.97
2022-09-23T13:02:34.591Z,99886.34
2022-09-23T13:05:01.149Z,99880.13
2022-09-23T13:07:09.392Z,99877.41
2022-09-23T13:09:21.677Z,99878.19
2022-09-23T13:11:31.824Z,99871.84
2022-09-23T13:13:46.354Z,99861.38
2022-09-23T13:15:48.785Z,99860.22
2022-09-23T13:17:51.086Z,99865.44
2022-09-23T13:20:07.265Z,99865.53
2022-09-23T13:22:11.291Z,99866.53
2022-09-23T13:24:13.471Z,99866.22
2022-09-23T13:26:16.455Z,99868.81
2022-09-23T13:28:27.589Z,99864.56
2022-09-23T13:30:30.571Z,99863.38
2022-09-23T13:32:40.862Z,99866.66
2022-09-23T13:34:47.411Z,99861.75
2022-09-23T13:36:49.541Z,99858.19
2022-09-23T13:38:51.400Z,99858.09
2022-09-23T13:41:03.506Z,99856.75
2022-09-23T13:43:11.080Z,99866.56
2022-09-23T13:45:18.927Z,99857.72
2022-09-23T13:47:21.661Z,99864.78
2022-09-23T13:49:26.629Z,99860.13
2022-09-23T13:51:35.969Z,99861.22
2022-09-23T13:53:38.522Z,99856.53
2022-09-23T13:55:41.593Z,99856.53
2022-09-23T13:57:43.493Z,99864.78
2022-09-23T13:59:45.600Z,99854.81
2022-09-23T14:01:47.729Z,99854.13
2022-09-23T14:03:51.476Z,99850.84
2022-09-23T14:05:56.725Z,99855.63
2022-09-23T14:07:59.967Z,99852.78
2022-09-23T14:10:02.224Z,99848.34
2022-09-23T14:12:06.877Z,99848.53
2022-09-23T14:14:15.256Z,99850.69
2022-09-23T14:16:18.318Z,99852.66
2022-09-23T14:18:32.627Z,99851.88
2022-09-23T14:20:46.237Z,99850.03
2022-09-23T14:22:48.344Z,99849.28
2022-09-23T14:24:51.318Z,99853.06
2022-09-23T14:27:14.628Z,99844.50
2022-09-23T14:29:23.946Z,99848.19
2022-09-23T14:31:26.327Z,99851.78
2022-09-23T14:33:32.797Z,99851.78
2022-09-23T14:35:46.749Z,99850.94
2022-09-23T14:38:31.937Z,99848.97
2022-09-23T14:40:37.306Z,99839.25
2022-09-23T14:42:42.438Z,99852.88
2022-09-23T14:44:50.543Z,99846.78
2022-09-23T14:46:59.610Z,99853.16
2022-09-23T14:49:06.030Z,99851.34
2022-09-23T14:51:14.476Z,99852.88
2022-09-23T14:53:24.777Z,99850.34
2022-09-23T14:55:29.338Z,99838.59
2022-09-23T14:57:32.064Z,99841.13
2022-09-23T14:59:37.056Z,99837.63
2022-09-23T15:01:39.754Z,99832.47
2022-09-23T15:03:50.287Z,99838.25
2022-09-23T15:05:58.477Z,99833.56
2022-09-23T15:08:03.121Z,99827.25
2022-09-23T15:10:23.828Z,99837.56
2022-09-23T15:12:30.304Z,99832.69
2022-09-23T15:14:41.056Z,99838.34
2022-09-23T15:16:43.520Z,99838.13
2022-09-23T15:18:46.462Z,99834.63
2022-09-23T15:20:55.775Z,99837.56
2022-09-23T15:22:58.123Z,99836.41
2022-09-23T15:25:17.298Z,99836.47
2022-09-23T15:27:32.791Z,99844.00
2022-09-23T15:29:35.502Z,99845.84
2022-09-23T15:31:41.133Z,99847.66
2022-09-23T15:33:51.722Z,99847.22
2022-09-23T15:35:54.968Z,99844.38
2022-09-23T15:37:59.057Z,99839.16
2022-09-23T15:40:01.507Z,99841.88
2022-09-23T15:42:03.879Z,99845.56
2022-09-23T15:44:14.042Z,99839.56
2022-09-23T15:46:28.796Z,99843.06
2022-09-23T15:48:39.696Z,99843.06
2022-09-23T15:50:43.025Z,99843.72
2022-09-23T15:52:45.554Z,99833.81
2022-09-23T15:54:47.953Z,99834.91
2022-09-23T15:56:50.027Z,99834.22
2022-09-23T15:58:52.171Z,99825.97
2022-09-23T16:00:56.942Z,99832.56
2022-09-23T16:02:59.201Z,99833.34
2022-09-23T16:05:06.111Z,99829.84
2022-09-23T16:07:16.953Z,99829.09
2022-09-23T16:09:19.207Z,99828.19
2022-09-23T16:11:27.043Z,99836.69
2022-09-23T16:13:29.809Z,99832.19
2022-09-23T16:15:33.239Z,99840.66
2022-09-23T16:17:38.026Z,99835.63
2022-09-23T16:19:40.610Z,99841.25
2022-09-23T16:21:43.631Z,99846.00
2022-09-23T16:23:49.379Z,99847.06
2022-09-23T16:25:54.578Z,99837.47
2022-09-23T16:27:57.479Z,99844.25
2022-09-23T16:29:59.845Z,99844.59
2022-09-23T16:32:05.013Z,99845.81
2022-09-23T16:34:10.039Z,99841.63
2022-09-23T16:36:29.595Z,99846.00
2022-09-23T16:38:32.502Z,99837.06
2022-09-23T16:40:35.618Z,99847.63
2022-09-23T16:42:39.406Z,99833.72
2022-09-23T16:44:41.756Z,99841.19
2022-09-23T16:46:43.928Z,99835.97
2022-09-23T16:48:52.148Z,99841.47
2022-09-23T16:50:55.230Z,99836.44
2022-09-23T16:52:57.944Z,99846.72
2022-09-23T16:55:00.301Z,99838.03
2022-09-23T16:57:02.624Z,99842.97
2022-09-23T16:59:08.078Z,99843.25
2022-09-23T17:01:34.463Z,99844.50
2022-09-23T17:03:42.668Z,99839.94
2022-09-23T17:05:46.781Z,99846.16
2022-09-23T17:07:52.106Z,99845.50
2022-09-23T17:09:57.359Z,99844.81
2022-09-23T17:12:26.995Z,99857.03
2022-09-23T17:14:31.715Z,99859.94
2022-09-23T17:16:35.354Z,99851.78
2022-09-23T17:18:39.136Z,99845.75
2022-09-23T17:20:41.763Z,99853.97
2022-09-23T17:22:47.090Z,99847.06
2022-09-23T17:24:49.670Z,99849.78
2022-09-23T17:26:53.242Z,99856.44
2022-09-23T17:28:57.925Z,99853.91
2022-09-23T17:31:02.415Z,99855.91
2022-09-23T17:33:04.342Z,99851.63
2022-09-23T17:35:07.377Z,99851.72
2022-09-23T17:37:09.459Z,99851.91
2022-09-23T17:39:11.431Z,99851.19
2022-09-23T17:41:14.578Z,99855.09
2022-09-23T17:43:24.982Z,99854.00
2022-09-23T17:45:27.137Z,99863.91
2022-09-23T17:47:29.160Z,99872.94
2022-09-23T17:49:35.610Z,99862.00
2022-09-23T17:51:38.028Z,99871.91
2022-09-23T17:53:42.367Z,99862.78
2022-09-23T17:55:44.358Z,99871.78
2022-09-23T17:57:51.717Z,99876.16
2022-09-23T17:59:53.841Z,99872.66
2022-09-23T18:01:56.007Z,99873.06
2022-09-23T18:04:04.211Z,99876.53
2022-09-23T18:06:14.686Z,99875.72
2022-09-23T18:08:17.113Z,99876.41
2022-09-23T18:10:19.526Z,99881.94
2022-09-23T18:12:26.554Z,99874.75
2022-09-23T18:14:32.438Z,99878.50
2022-09-23T18:16:39.904Z,99884.09
2022-09-23T18:18:44.872Z,99887.94
2022-09-23T18:20:47.178Z,99899.66
2022-09-23T18:22:49.418Z,99894.41
2022-09-23T18:24:51.683Z,99887.22
2022-09-23T18:27:00.066Z,99891.84
2022-09-23T18:29:03.065Z,99893.59
2022-09-23T18:31:05.355Z,99889.66
2022-09-23T18:33:08.304Z,99893.59
2022-09-23T18:35:11.280Z,99887.38
2022-09-23T18:37:16.044Z,99888.19
2022-09-23T18:39:19.136Z,99886.44
2022-09-23T18:41:22.348Z,99886.44
2022-09-23T18:43:40.578Z,99881.03
2022-09-23T18:45:55.661Z,99884.78
2022-09-23T18:48:16.661Z,99887.38
2022-09-23T18:50:37.736Z,99885.72
2022-09-23T18:52:39.964Z,99885.81
2022-09-23T18:54:42.772Z,99885.81
2022-09-23T18:56:44.879Z,99888.53
2022-09-23T18:58:52.067Z,99885.09
2022-09-23T19:00:54.276Z,99885.97
2022-09-23T19:02:59.118Z,99888.75
2022-09-23T19:05:02.227Z,99887.78
2022-09-23T19:07:05.752Z,99893.31
2022-09-23T19:09:08.115Z,99891.63
2022-09-23T19:11:12.976Z,99894.41
2022-09-23T19:13:15.440Z,99892.69
2022-09-23T19:15:17.784Z,99893.63
2022-09-23T19:17:19.910Z,99902.63
2022-09-23T19:19:21.852Z,99900.88
2022-09-23T19:21:24.373Z,99898.16
2022-09-23T19:23:34.997Z,99900.22
2022-09-23T19:25:37.202Z,99893.78
2022-09-23T19:27:40.328Z,99895.69
2022-09-23T19:29:42.573Z,99901.09
2022-09-23T19:31:44.713Z,99898.56
2022-09-23T19:33:59.371Z,99895.22
2022-09-23T19:36:01.540Z,99889.72
2022-09-23T19:38:03.905Z,99892.50
2022-09-23T19:40:06.605Z,99888.94
2022-09-23T19:42:10.045Z,99887.25
2022-09-23T19:44:12.517Z,99888.13
2022-09-23T19:46:15.606Z,99890.13
2022-09-23T19:48:17.708Z,99891.88
2022-09-23T19:50:20.589Z,99889.25
2022-09-23T19:52:22.942Z,99885.66
2022-09-23T19:54:26.762Z,99884.78
2022-09-23T19:56:33.266Z,99881.44
2022-09-23T19:58:35.779Z,99878.66
2022-09-23T20:00:37.838Z,99887.81
2022-09-23T20:02:40.334Z,99879.72
2022-09-23T20:04:42.664Z,99882.56
2022-09-23T20:06:46.144Z,99884.38
2022-09-23T20:08:49.460Z,99881.69
2022-09-23T20:10:51.358Z,99881.78
2022-09-23T20:12:53.876Z,99897.22
2022-09-23T20:14:55.851Z,99891.97
2022-09-23T20:17:00.210Z,99892.03
2022-09-23T20:19:04.127Z,99894.88
2022-09-23T20:21:07.277Z,99894.09
2022-09-23T20:23:09.862Z,99888.25
2022-09-23T20:25:14.643Z,99890.91
2022-09-23T20:27:16.799Z,99893.66
2022-09-23T20:29:19.296Z,99891.22
2022-09-23T20:31:22.690Z,99893.03
2022-09-23T20:33:24.760Z,99893.03
2022-09-23T20:35:26.744Z,99888.59
2022-09-23T20:37:30.786Z,99897.56
2022-09-23T20:39:32.678Z,99898.03
2022-09-23T20:41:38.017Z,99904.75
2022-09-23T20:43:40.680Z,99898.47
2022-09-23T20:45:50.165Z,99893.53
2022-09-23T20:47:52.222Z,99892.81
2022-09-23T20:49:54.179Z,99890.22
2022-09-23T20:51:56.102Z,99882.00
2022-09-23T20:53:58.046Z,99881.38
2022-09-23T20:56:00.926Z,99884.47
2022-09-23T20:58:03.653Z,99880.00
2022-09-23T21:00:07.887Z,99884.75
2022-09-23T21:02:11.123Z,99887.41
2022-09-23T21:04:13.312Z,99884.47
2022-09-23T21:06:17.111Z,99893.63
2022-09-23T21:08:19.694Z,99885.34
2022-09-23T21:10:22.912Z,99884.31
2022-09-23T21:12:24.756Z,99881.53
2022-09-23T21:14:26.881Z,99884.38
2022-09-23T21:16:29.996Z,99887.03
2022-09-23T21:18:32.215Z,99883.34
2022-09-23T21:20:34.327Z,99894.38
2022-09-23T21:22:36.897Z,99898.00
2022-09-23T21:25:25.719Z,99884.47
2022-09-23T21:27:04.072Z,99891.69
2022-09-23T21:29:06.998Z,99893.63
2022-09-23T21:31:12.189Z,99895.34
2022-09-23T21:33:15.158Z,99897.03
2022-09-23T21:35:18.949Z,99892.66
2022-09-23T21:37:21.835Z,99901.63
2022-09-23T21:39:23.886Z,99898.41
2022-09-23T21:41:26.046Z,99892.66
2022-09-23T21:43:32.615Z,99895.28
2022-09-23T21:45:34.648Z,99888.94
2022-09-23T21:47:40.014Z,99891.63
2022-09-23T21:49:44.853Z,99888.78
2022-09-23T21:51:55.159Z,99891.50
2022-09-23T21:53:58.559Z,99893.38
2022-09-23T21:56:12.383Z,99889.72
2022-09-23T21:58:16.026Z,99887.97
2022-09-23T22:00:18.003Z,99888.94
2022-09-23T22:02:20.617Z,99885.34
2022-09-23T22:04:22.864Z,99884.47
2022-09-23T22:06:27.530Z,99880.09
2022-09-23T22:08:37.106Z,99889.22
2022-09-23T22:10:39.215Z,99888.28
2022-09-23T22:12:41.412Z,99888.34
2022-09-23T22:14:46.218Z,99896.59
2022-09-23T22:16:48.205Z,99888.50
2022-09-23T22:18:52.596Z,99888.66
2022-09-23T22:20:57.952Z,99894.16
2022-09-23T22:23:00.558Z,99886.22
2022-09-23T22:25:03.074Z,99891.63
2022-09-23T22:27:07.869Z,99890.81
2022-09-23T22:29:33.647Z,99895.63
2022-09-23T22:31:54.703Z,99895.53
2022-09-23T22:33:57.275Z,99893.94
2022-09-23T22:36:03.999Z,99894.97
2022-09-23T22:38:06.058Z,99889.63
2022-09-23T22:40:11.749Z,99886.06
2022-09-23T22:42:14.482Z,99884.22
2022-09-23T22:44:18.908Z,99879.94
2022-09-23T22:46:23.055Z,99877.34
2022-09-23T22:48:27.479Z,99880.13
2022-09-23T22:50:29.806Z,99874.94
2022-09-23T22:52:33.605Z,99885.88
2022-09-23T22:54:36.344Z,99892.31
2022-09-23T22:56:38.867Z,99885.28
2022-09-23T22:58:41.298Z,99890.81
2022-09-23T23:00:43.749Z,99884.69
2022-09-23T23:02:48.572Z,99885.75
2022-09-23T23:04:51.044Z,99885.75
2022-09-23T23:06:53.459Z,99885.91
2022-09-23T23:09:00.398Z,99887.66
2022-09-23T23:11:10.337Z,99889.00
2022-09-23T23:13:12.822Z,99894.34
2022-09-23T23:15:15.830Z,99900.66
2022-09-23T23:17:19.042Z,99893.53
2022-09-23T23:19:21.696Z,99898.13
2022-09-23T23:21:28.908Z,99890.97
2022-09-23T23:23:31.247Z,99890.22
2022-09-23T23:25:33.599Z,99898.44
2022-09-23T23:27:35.923Z,99890.44
2022-09-23T23:29:38.130Z,99888.75
2022-09-23T23:31:41.382Z,99888.03
2022-09-23T23:33:44.759Z,99887.09
2022-09-23T23:35:53.198Z,99879.31
2022-09-23T23:37:55.586Z,99885.69
2022-09-23T23:39:58.064Z,99888.38
2022-09-23T23:42:05.124Z,99884.00
2022-09-23T23:44:08.256Z,99876.91
2022-09-23T23:46:11.743Z,99875.13
2022-09-23T23:48:16.374Z,99867.25
2022-09-23T23:50:18.372Z,99867.13
2022-09-23T23:52:20.586Z,99868.34
2022-09-23T23:54:22.646Z,99865.81
2022-09-23T23:56:26.498Z,99864.00
2022-09-23T23:58:29.274Z,99870.41
